Time;durP1;ratioP1;P1;durP2;ratioP2;P2;SDS_P1;SDS_P2;PMS_P1;PMS_P2;Temp;Humidity;BMP_temperature;BMP_pressure;BME280_temperature;BME280_humidity;BME280_pressure;Samples;Min_cycle;Max_cycle;Signal;HPM_P1;HPM_P2
2022/04/17 00:00:19;;;;;;;78.05;51.70;;;19.00;57.20;;;;;;4938971;28;90840;-38
2022/04/17 00:02:45;;;;;;;79.50;51.97;;;19.00;57.10;;;;;;4939194;28;90162;-39
2022/04/17 00:05:11;;;;;;;76.57;51.55;;;19.00;57.20;;;;;;4938722;28;91953;-39
2022/04/17 00:07:37;;;;;;;77.03;51.92;;;19.00;57.20;;;;;;4942004;28;90476;-40
2022/04/17 00:10:04;;;;;;;77.25;51.88;;;19.00;57.10;;;;;;4945171;28;90978;-36
2022/04/17 00:12:30;;;;;;;76.90;51.50;;;18.90;57.00;;;;;;4941015;28;91616;-38
2022/04/17 00:14:56;;;;;;;78.28;51.72;;;18.90;57.20;;;;;;4941894;28;95049;-35
2022/04/17 00:17:22;;;;;;;77.38;52.05;;;18.90;57.20;;;;;;4939184;28;89540;-38
2022/04/17 00:19:48;;;;;;;78.30;51.83;;;18.90;57.20;;;;;;4938795;28;90214;-41
2022/04/17 00:22:14;;;;;;;77.05;51.75;;;18.80;57.10;;;;;;4939220;28;93297;-40
2022/04/17 00:24:40;;;;;;;76.80;51.55;;;18.80;57.00;;;;;;4938761;28;92711;-36
2022/04/17 00:27:06;;;;;;;77.28;51.85;;;18.80;57.00;;;;;;4937138;28;89923;-42
2022/04/17 00:29:32;;;;;;;78.05;52.25;;;18.80;57.00;;;;;;4937749;28;92271;-40
2022/04/17 00:31:57;;;;;;;76.28;51.47;;;18.80;57.00;;;;;;4937432;28;89842;-36
2022/04/17 00:34:24;;;;;;;77.57;51.92;;;18.80;57.00;;;;;;4937120;28;91391;-38
2022/04/17 00:36:50;;;;;;;77.45;51.35;;;18.80;57.00;;;;;;4942443;28;95482;-38
2022/04/17 00:39:16;;;;;;;76.65;51.55;;;18.80;56.90;;;;;;4950426;28;90935;-40
2022/04/17 00:41:42;;;;;;;76.50;51.47;;;18.80;56.90;;;;;;4938710;28;92193;-38
2022/04/17 00:44:12;;;;;;;76.40;51.55;;;18.70;56.90;;;;;;4949594;28;90324;-41
2022/04/17 00:46:40;;;;;;;76.63;51.60;;;18.70;56.90;;;;;;4942552;28;89318;-38
2022/04/17 00:49:07;;;;;;;76.63;51.42;;;18.70;56.80;;;;;;4937146;28;90153;-41
2022/04/17 00:51:37;;;;;;;77.13;51.65;;;18.70;56.80;;;;;;4936378;28;90344;-39
2022/04/17 00:54:04;;;;;;;77.45;51.53;;;18.70;56.80;;;;;;4941186;28;94150;-40
2022/04/17 00:56:31;;;;;;;76.88;51.20;;;18.70;57.40;;;;;;4934948;28;91167;-37
2022/04/17 00:58:57;;;;;;;76.97;51.60;;;18.70;56.90;;;;;;4941287;28;90592;-36
2022/04/17 01:01:23;;;;;;;76.50;51.65;;;18.70;56.80;;;;;;4939309;28;90107;-37
2022/04/17 01:03:50;;;;;;;76.88;51.47;;;18.70;56.80;;;;;;4948924;28;90015;-39
2022/04/17 01:06:16;;;;;;;77.05;51.60;;;18.60;56.80;;;;;;4936028;28;96166;-40
2022/04/17 01:08:42;;;;;;;77.10;51.30;;;18.60;56.80;;;;;;4951929;28;91083;-38
2022/04/17 01:11:09;;;;;;;77.90;51.88;;;18.60;56.80;;;;;;4933582;28;89810;-41
2022/04/17 01:13:38;;;;;;;77.60;51.63;;;18.60;56.80;;;;;;4936453;28;90092;-40
2022/04/17 01:16:05;;;;;;;76.07;51.53;;;18.60;56.70;;;;;;4935687;28;94913;-37
2022/04/17 01:18:57;;;;;;;76.60;51.55;;;18.60;56.80;;;;;;4932839;28;91672;-39
2022/04/17 01:21:26;;;;;;;76.88;51.72;;;18.60;56.70;;;;;;4935185;28;90030;-39
2022/04/17 01:26:56;;;;;;;75.97;51.22;;;18.60;56.70;;;;;;4940464;28;91098;-41
2022/04/17 01:29:26;;;;;;;76.40;51.40;;;18.50;56.70;;;;;;4938280;28;92169;-39
2022/04/17 01:31:52;;;;;;;76.63;51.45;;;18.50;56.60;;;;;;4940514;28;90952;-40
2022/04/17 01:34:19;;;;;;;76.22;51.20;;;18.50;56.70;;;;;;4934566;28;90670;-41
2022/04/17 01:36:46;;;;;;;76.82;51.45;;;18.50;56.70;;;;;;4939154;28;94405;-38
2022/04/17 01:39:16;;;;;;;77.13;51.47;;;18.50;56.60;;;;;;4940739;28;91029;-42
2022/04/17 01:41:42;;;;;;;76.78;51.42;;;18.50;56.70;;;;;;4949829;28;90204;-41
2022/04/17 01:44:08;;;;;;;76.32;51.25;;;18.50;56.60;;;;;;4949813;28;90886;-42
2022/04/17 01:46:34;;;;;;;75.93;51.08;;;18.40;56.50;;;;;;4947407;28;89917;-41
2022/04/17 01:49:00;;;;;;;75.45;51.08;;;18.40;56.60;;;;;;4936114;28;90199;-39
2022/04/17 01:51:26;;;;;;;76.43;51.33;;;18.40;56.50;;;;;;4935414;28;90458;-40
2022/04/17 01:53:52;;;;;;;76.32;51.38;;;18.40;56.60;;;;;;4920521;28;90938;-40
2022/04/17 01:56:18;;;;;;;75.93;51.45;;;18.40;56.40;;;;;;4934854;28;91054;-38
2022/04/17 01:58:44;;;;;;;75.65;51.28;;;18.40;56.50;;;;;;4940777;28;91696;-38
2022/04/17 02:01:09;;;;;;;77.05;51.30;;;18.40;56.50;;;;;;4946704;28;89841;-38
2022/04/17 02:03:35;;;;;;;75.90;51.25;;;18.30;56.50;;;;;;4944242;28;90513;-41
2022/04/17 02:06:01;;;;;;;76.63;51.42;;;18.30;56.40;;;;;;4939281;28;92931;-34
2022/04/17 02:08:30;;;;;;;75.75;51.28;;;18.30;56.50;;;;;;4940647;28;91076;-40
2022/04/17 02:10:56;;;;;;;75.72;51.28;;;18.30;56.50;;;;;;4941000;28;91558;-37
2022/04/17 02:13:23;;;;;;;77.47;51.30;;;18.30;56.50;;;;;;4944092;28;91356;-36
2022/04/17 02:15:53;;;;;;;75.72;51.25;;;18.30;56.50;;;;;;4946510;28;89920;-38
2022/04/17 02:18:20;;;;;;;76.88;51.13;;;18.30;56.50;;;;;;4940281;28;90686;-41
2022/04/17 02:20:47;;;;;;;76.53;51.25;;;18.30;56.50;;;;;;4937639;28;93551;-39
2022/04/17 02:23:13;;;;;;;75.85;51.28;;;18.30;56.50;;;;;;4938144;28;93240;-42
2022/04/17 02:25:39;;;;;;;76.45;50.78;;;18.20;56.50;;;;;;4939866;28;89153;-37
2022/04/17 02:28:04;;;;;;;77.22;51.05;;;18.20;56.60;;;;;;4940953;28;94245;-40
2022/04/17 02:30:30;;;;;;;77.07;51.15;;;18.20;56.50;;;;;;4947990;28;90598;-36
2022/04/17 02:32:56;;;;;;;75.80;51.05;;;18.20;56.50;;;;;;4942734;28;92063;-41
2022/04/17 02:35:21;;;;;;;76.38;51.13;;;18.20;56.50;;;;;;4939086;28;95562;-36
2022/04/17 02:37:47;;;;;;;76.03;51.15;;;18.20;56.50;;;;;;4940288;28;91110;-39
2022/04/17 02:40:12;;;;;;;75.95;51.03;;;18.20;56.40;;;;;;4936636;28;96057;-37
2022/04/17 02:42:38;;;;;;;77.57;51.35;;;18.20;56.50;;;;;;4938348;28;94437;-42
2022/04/17 02:45:05;;;;;;;76.57;51.33;;;18.10;56.40;;;;;;4947143;28;90655;-38
2022/04/17 02:47:43;;;;;;;77.88;51.10;;;18.10;56.50;;;;;;4944654;28;91657;-38
2022/04/17 02:50:11;;;;;;;75.32;51.00;;;18.10;56.40;;;;;;4937953;28;89885;-39
2022/04/17 02:52:37;;;;;;;74.78;50.83;;;18.10;56.50;;;;;;4939755;28;90258;-39
2022/04/17 02:55:03;;;;;;;75.57;51.22;;;18.10;56.50;;;;;;4939259;28;91318;-38
2022/04/17 02:57:30;;;;;;;75.25;51.03;;;18.10;56.60;;;;;;4940741;28;91105;-39
2022/04/17 02:59:56;;;;;;;75.82;51.05;;;18.10;56.30;;;;;;4940238;28;91399;-36
2022/04/17 03:07:51;;;;;;;75.18;50.75;;;18.00;56.30;;;;;;4937460;28;90478;-37
2022/04/17 03:10:17;;;;;;;76.72;51.33;;;18.00;56.40;;;;;;4937907;28;92108;-40
2022/04/17 03:12:43;;;;;;;75.07;50.72;;;18.00;56.40;;;;;;4941807;28;90670;-36
2022/04/17 03:15:09;;;;;;;74.95;50.85;;;18.00;56.30;;;;;;4938166;28;88814;-37
2022/04/17 03:17:36;;;;;;;74.82;50.85;;;18.00;56.40;;;;;;4939580;28;90055;-41
2022/04/17 03:20:03;;;;;;;77.18;50.95;;;18.00;56.30;;;;;;4940247;28;96325;-36
2022/04/17 03:22:29;;;;;;;75.95;51.08;;;18.00;56.40;;;;;;4938510;28;91837;-39
2022/04/17 03:24:55;;;;;;;77.43;51.13;;;18.00;56.20;;;;;;4937720;28;92142;-41
2022/04/17 03:27:21;;;;;;;75.18;50.92;;;18.00;56.40;;;;;;4939756;28;90689;-36
2022/04/17 03:29:47;;;;;;;76.43;50.92;;;18.00;56.40;;;;;;4941690;28;91780;-38
2022/04/17 03:32:13;;;;;;;75.43;50.80;;;18.00;56.30;;;;;;4936095;28;90464;-37
2022/04/17 03:34:38;;;;;;;74.43;50.75;;;18.00;56.30;;;;;;4944451;28;90171;-37
2022/04/17 03:37:05;;;;;;;75.65;50.85;;;17.90;56.30;;;;;;4941157;28;90259;-38
2022/04/17 03:39:33;;;;;;;75.20;50.72;;;17.90;56.30;;;;;;4941357;28;89946;-37
2022/04/17 03:41:59;;;;;;;75.65;51.05;;;17.90;56.30;;;;;;4937074;28;90190;-38
2022/04/17 03:44:25;;;;;;;74.78;50.55;;;17.90;56.80;;;;;;4931883;28;90707;-36
2022/04/17 03:46:51;;;;;;;74.20;50.72;;;17.90;56.20;;;;;;4943729;28;91280;-38
2022/04/17 03:49:17;;;;;;;74.57;50.75;;;17.90;56.20;;;;;;4941856;28;90297;-41
2022/04/17 03:51:43;;;;;;;74.32;50.65;;;17.90;56.20;;;;;;4939164;28;89937;-41
2022/04/17 03:54:09;;;;;;;74.47;50.78;;;17.90;56.20;;;;;;4936136;28;95531;-40
2022/04/17 03:56:34;;;;;;;74.95;50.70;;;17.90;56.30;;;;;;4940836;28;90225;-38
2022/04/17 03:59:01;;;;;;;74.60;50.72;;;17.80;56.20;;;;;;4944720;28;90842;-37
2022/04/17 04:01:27;;;;;;;74.57;50.50;;;17.80;56.10;;;;;;4937224;28;92206;-41
2022/04/17 04:03:56;;;;;;;75.35;50.65;;;17.80;56.20;;;;;;4945847;28;92269;-41
2022/04/17 04:06:22;;;;;;;74.43;50.42;;;17.80;56.20;;;;;;4938230;28;91211;-37
2022/04/17 04:08:49;;;;;;;74.20;50.58;;;17.80;56.20;;;;;;4942440;28;90196;-40
2022/04/17 04:11:17;;;;;;;74.47;50.63;;;17.80;56.10;;;;;;4941765;28;90894;-39
2022/04/17 04:13:43;;;;;;;76.00;50.88;;;17.80;56.20;;;;;;4953436;28;89775;-40
2022/04/17 04:16:09;;;;;;;74.13;50.63;;;17.80;56.10;;;;;;4945556;28;89991;-39
2022/04/17 04:18:35;;;;;;;74.07;50.35;;;17.70;56.10;;;;;;4948658;28;89980;-37
2022/04/17 04:21:01;;;;;;;73.95;50.67;;;17.80;56.20;;;;;;4940787;28;89937;-38
2022/04/17 04:23:26;;;;;;;74.75;51.05;;;17.80;56.20;;;;;;4951789;28;90464;-41
2022/04/17 04:25:52;;;;;;;74.32;50.85;;;17.70;56.10;;;;;;4947713;28;89923;-38
2022/04/17 04:28:33;;;;;;;73.97;50.67;;;17.70;56.10;;;;;;4949186;28;90375;-38
2022/04/17 04:31:19;;;;;;;76.25;50.67;;;17.70;56.10;;;;;;4952430;28;89427;-41
2022/04/17 04:33:45;;;;;;;73.82;50.65;;;17.70;56.10;;;;;;4949426;28;89687;-37
2022/04/17 04:36:11;;;;;;;76.03;51.13;;;17.70;56.10;;;;;;4945654;28;92003;-38
2022/04/17 04:38:38;;;;;;;74.47;50.65;;;17.70;56.00;;;;;;4943323;28;91482;-40
2022/04/17 04:41:06;;;;;;;76.38;50.88;;;17.70;56.00;;;;;;4945155;28;97706;-40
2022/04/17 04:43:32;;;;;;;73.95;50.42;;;17.70;56.00;;;;;;4950876;28;89961;-40
2022/04/17 04:46:07;;;;;;;75.13;50.65;;;17.60;56.00;;;;;;4945584;28;90352;-39
2022/04/17 04:51:26;;;;;;;73.78;50.35;;;17.70;56.00;;;;;;4944476;28;91233;-38
2022/04/17 04:53:52;;;;;;;73.97;50.45;;;17.60;56.00;;;;;;4947556;28;88934;-38
2022/04/17 04:56:20;;;;;;;73.82;50.58;;;17.60;55.90;;;;;;4938929;28;89811;-42
2022/04/17 04:58:46;;;;;;;73.53;50.08;;;17.60;55.90;;;;;;4946852;28;90399;-37
2022/04/17 05:01:12;;;;;;;73.72;50.22;;;17.60;55.90;;;;;;4942515;28;91002;-34
2022/04/17 05:03:39;;;;;;;73.20;50.28;;;17.60;56.00;;;;;;4946596;28;90777;-37
2022/04/17 05:06:04;;;;;;;73.68;50.47;;;17.50;55.80;;;;;;4947558;28;89908;-37
2022/04/17 05:08:30;;;;;;;76.40;50.83;;;17.60;56.00;;;;;;4942038;28;89816;-41
2022/04/17 05:10:56;;;;;;;74.03;50.72;;;17.60;56.50;;;;;;4937824;28;90275;-42
2022/04/17 05:13:22;;;;;;;74.38;50.60;;;17.60;55.80;;;;;;4933833;28;89971;-40
2022/04/17 05:15:48;;;;;;;74.28;50.75;;;17.60;55.90;;;;;;4934822;28;90285;-38
2022/04/17 05:18:13;;;;;;;74.40;50.65;;;17.50;55.80;;;;;;4940971;28;89296;-37
2022/04/17 05:20:39;;;;;;;74.43;50.55;;;17.50;55.80;;;;;;4939306;28;89889;-40
2022/04/17 05:23:21;;;;;;;73.30;50.55;;;17.50;55.80;;;;;;4936100;28;90173;-37
2022/04/17 05:25:49;;;;;;;73.47;50.40;;;17.50;55.80;;;;;;4936500;28;91067;-37
2022/04/17 05:28:15;;;;;;;74.93;50.85;;;17.50;55.80;;;;;;4941882;28;90064;-37
2022/04/17 05:30:42;;;;;;;73.47;50.55;;;17.50;55.70;;;;;;4938198;28;90423;-41
2022/04/17 05:33:08;;;;;;;73.38;50.53;;;17.50;55.70;;;;;;4941877;28;95253;-39
2022/04/17 05:35:34;;;;;;;75.90;50.55;;;17.50;55.70;;;;;;4936710;28;91164;-42
2022/04/17 05:38:00;;;;;;;74.30;50.95;;;17.50;55.70;;;;;;4946064;28;90193;-37
2022/04/17 05:40:26;;;;;;;74.57;50.38;;;17.50;55.60;;;;;;4940697;28;89727;-39
2022/04/17 05:42:51;;;;;;;74.60;50.65;;;17.50;55.60;;;;;;4937885;28;92333;-39
2022/04/17 05:45:17;;;;;;;74.43;50.60;;;17.40;55.60;;;;;;4940332;28;91404;-42
2022/04/17 05:47:43;;;;;;;74.63;50.78;;;17.50;55.60;;;;;;4937763;28;91099;-51
2022/04/17 05:50:09;;;;;;;73.75;50.45;;;17.40;55.50;;;;;;4944057;28;94406;-40
2022/04/17 05:52:35;;;;;;;77.05;51.15;;;17.40;55.60;;;;;;4938716;28;90045;-40
2022/04/17 05:55:01;;;;;;;74.07;50.50;;;17.50;55.60;;;;;;4948161;28;91089;-40
2022/04/17 05:57:27;;;;;;;73.60;50.47;;;17.50;55.60;;;;;;4941533;28;90278;-39
2022/04/17 05:59:52;;;;;;;74.53;50.75;;;17.40;55.40;;;;;;4939638;28;90435;-39
2022/04/17 06:02:18;;;;;;;73.88;50.70;;;17.50;55.50;;;;;;4940031;28;90136;-42
2022/04/17 06:04:44;;;;;;;73.78;50.30;;;17.40;55.40;;;;;;4939880;28;91174;-40
2022/04/17 06:07:09;;;;;;;75.38;50.88;;;17.50;55.60;;;;;;4942940;28;90896;-36
2022/04/17 06:09:36;;;;;;;73.82;50.40;;;17.40;55.30;;;;;;4937095;28;94946;-39
2022/04/17 06:12:01;;;;;;;74.03;50.33;;;17.40;55.30;;;;;;4940601;28;90169;-42
2022/04/17 06:14:27;;;;;;;75.10;50.63;;;17.40;55.30;;;;;;4939156;28;92441;-38
2022/04/17 06:16:53;;;;;;;74.95;50.72;;;17.50;55.30;;;;;;4941285;28;90307;-40
2022/04/17 06:19:18;;;;;;;73.88;50.55;;;17.50;55.30;;;;;;4941781;28;96472;-34
2022/04/17 06:21:44;;;;;;;74.70;50.58;;;17.50;55.40;;;;;;4937467;28;90396;-38
2022/04/17 06:24:10;;;;;;;75.43;50.90;;;17.40;55.10;;;;;;4945374;28;90223;-39
2022/04/17 06:26:36;;;;;;;74.47;50.67;;;17.40;55.10;;;;;;4943450;28;89920;-40
2022/04/17 06:29:05;;;;;;;74.32;50.35;;;17.40;55.10;;;;;;4940238;28;89947;-40
2022/04/17 06:31:31;;;;;;;73.88;50.72;;;17.40;55.20;;;;;;4936633;28;90511;-40
2022/04/17 06:33:57;;;;;;;75.28;50.92;;;17.40;55.20;;;;;;4941073;28;95322;-39
2022/04/17 06:36:23;;;;;;;74.32;50.53;;;17.50;55.20;;;;;;4937660;28;91207;-37
2022/04/17 06:38:48;;;;;;;74.72;50.67;;;17.40;55.10;;;;;;4939985;28;91628;-41
2022/04/17 06:41:14;;;;;;;74.20;50.70;;;17.40;55.70;;;;;;4944788;28;90648;-35
2022/04/17 06:43:40;;;;;;;74.15;50.50;;;17.40;55.10;;;;;;4935477;28;92899;-36
2022/04/17 06:46:06;;;;;;;74.45;50.55;;;17.50;55.00;;;;;;4947064;28;90160;-34
2022/04/17 06:48:31;;;;;;;74.22;50.40;;;17.40;55.00;;;;;;4941420;28;89767;-42
2022/04/17 06:50:57;;;;;;;74.25;50.45;;;17.40;55.00;;;;;;4940197;28;90553;-39
2022/04/17 06:53:23;;;;;;;73.60;50.42;;;17.40;55.00;;;;;;4945523;28;89966;-42
2022/04/17 06:55:49;;;;;;;74.70;50.63;;;17.50;55.10;;;;;;4945711;28;90377;-42
2022/04/17 06:58:18;;;;;;;75.32;50.65;;;17.40;54.80;;;;;;4944361;28;90060;-39
2022/04/17 07:00:44;;;;;;;74.97;50.58;;;17.50;55.00;;;;;;4940135;28;90894;-39
2022/04/17 07:03:09;;;;;;;74.70;50.75;;;17.50;54.90;;;;;;4939523;28;92102;-44
2022/04/17 07:05:35;;;;;;;74.45;50.85;;;17.50;55.00;;;;;;4938936;28;96128;-35
2022/04/17 07:08:04;;;;;;;74.28;50.55;;;17.40;54.80;;;;;;4939314;28;90863;-41
2022/04/17 07:10:32;;;;;;;75.45;50.67;;;17.50;54.80;;;;;;4941333;28;92786;-40
2022/04/17 07:12:57;;;;;;;75.30;50.97;;;17.50;54.70;;;;;;4940644;28;91407;-41
2022/04/17 07:15:24;;;;;;;74.57;50.72;;;17.50;54.90;;;;;;4941886;28;90134;-36
2022/04/17 07:17:51;;;;;;;78.13;50.85;;;17.50;54.90;;;;;;4939703;28;95680;-39
2022/04/17 07:20:17;;;;;;;77.60;50.88;;;17.50;54.70;;;;;;4940705;28;90630;-39
2022/04/17 07:22:43;;;;;;;76.75;50.80;;;17.50;54.60;;;;;;4946811;28;91028;-40
2022/04/17 07:25:11;;;;;;;77.88;50.63;;;17.50;54.50;;;;;;4943904;28;92020;-36
2022/04/17 07:27:41;;;;;;;76.75;50.78;;;17.60;54.60;;;;;;4943262;28;91181;-39
2022/04/17 07:30:11;;;;;;;76.18;51.25;;;17.60;54.60;;;;;;4942295;28;90027;-39
2022/04/17 07:32:37;;;;;;;74.95;50.83;;;17.50;54.60;;;;;;4938234;28;90452;-37
2022/04/17 07:35:03;;;;;;;76.22;51.08;;;17.60;54.50;;;;;;4939328;28;90524;-41
2022/04/17 07:37:31;;;;;;;75.95;50.78;;;17.60;54.50;;;;;;4939224;28;91170;-37
2022/04/17 07:39:56;;;;;;;74.82;50.75;;;17.60;54.50;;;;;;4944349;28;92207;-42
2022/04/17 07:42:22;;;;;;;74.63;50.65;;;17.60;54.50;;;;;;4943723;28;89979;-37
2022/04/17 07:44:48;;;;;;;75.47;50.97;;;17.60;54.30;;;;;;4932575;28;90971;-43
2022/04/17 07:47:16;;;;;;;74.70;50.50;;;17.60;54.40;;;;;;4937982;28;90493;-38
2022/04/17 07:49:45;;;;;;;77.63;50.67;;;17.60;54.30;;;;;;4943534;28;91117;-39
2022/04/17 07:52:11;;;;;;;76.40;50.97;;;17.60;54.40;;;;;;4941541;28;95438;-41
2022/04/17 07:54:36;;;;;;;76.50;51.20;;;17.60;54.40;;;;;;4936902;28;91681;-38
2022/04/17 07:57:02;;;;;;;77.43;51.00;;;17.70;54.50;;;;;;4945219;28;91142;-42
2022/04/17 07:59:28;;;;;;;76.10;50.75;;;17.70;54.50;;;;;;4942980;28;89734;-38
2022/04/17 08:02:01;;;;;;;77.03;50.53;;;17.70;54.70;;;;;;4941315;28;91182;-41
2022/04/17 08:04:30;;;;;;;75.90;50.58;;;17.70;54.60;;;;;;4936638;28;91834;-39
2022/04/17 08:06:56;;;;;;;81.18;50.80;;;17.70;54.50;;;;;;4936177;28;89850;-40
2022/04/17 08:09:22;;;;;;;78.22;50.88;;;17.70;54.60;;;;;;4940504;28;90698;-39
2022/04/17 08:11:51;;;;;;;75.82;50.72;;;17.80;54.90;;;;;;4943949;28;89989;-40
2022/04/17 08:14:18;;;;;;;78.20;50.95;;;17.80;55.00;;;;;;4936844;28;90872;-40
2022/04/17 08:16:44;;;;;;;80.45;51.15;;;17.80;55.30;;;;;;4943421;28;92107;-39
2022/04/17 08:19:10;;;;;;;82.22;51.05;;;17.80;55.50;;;;;;4939025;28;90815;-38
2022/04/17 08:21:36;;;;;;;87.45;53.33;;;17.80;55.40;;;;;;4942303;28;90613;-36
2022/04/17 08:24:02;;;;;;;148.43;92.15;;;17.80;55.90;;;;;;4932765;28;90038;-40
2022/04/17 08:26:28;;;;;;;122.82;79.72;;;17.90;56.60;;;;;;4944111;28;90310;-40
2022/04/17 08:28:54;;;;;;;96.82;64.53;;;17.90;57.60;;;;;;4935289;28;91183;-40
2022/04/17 08:31:20;;;;;;;104.82;61.95;;;17.90;57.70;;;;;;4935918;28;90160;-36
2022/04/17 08:33:46;;;;;;;96.50;58.95;;;17.90;57.70;;;;;;4935140;28;90778;-35
2022/04/17 08:36:12;;;;;;;91.25;57.90;;;18.00;57.90;;;;;;4942475;28;90126;-38
2022/04/17 08:38:38;;;;;;;92.20;56.78;;;18.00;58.00;;;;;;4939591;28;89429;-42
2022/04/17 08:41:07;;;;;;;89.47;56.78;;;18.00;58.20;;;;;;4940523;28;91296;-42
2022/04/17 08:43:33;;;;;;;89.13;55.28;;;18.00;58.90;;;;;;4942649;28;90836;-40
2022/04/17 08:45:58;;;;;;;81.53;54.60;;;18.10;59.00;;;;;;4943064;28;90421;-40
2022/04/17 08:48:26;;;;;;;87.78;54.70;;;18.10;59.00;;;;;;4941235;28;91466;-40
2022/04/17 08:50:52;;;;;;;86.75;54.53;;;18.10;59.00;;;;;;4938022;28;91304;-41
2022/04/17 08:53:20;;;;;;;86.22;54.85;;;18.10;59.10;;;;;;4942103;28;96832;-38
2022/04/17 08:55:47;;;;;;;88.70;53.90;;;18.20;59.50;;;;;;4938730;28;90997;-40
2022/04/17 08:58:13;;;;;;;95.45;54.30;;;18.20;59.10;;;;;;4934884;28;89985;-40
2022/04/17 09:00:40;;;;;;;94.05;53.53;;;18.20;59.20;;;;;;4933924;28;90449;-39
2022/04/17 09:03:08;;;;;;;85.75;53.33;;;18.30;59.30;;;;;;4936289;28;90626;-39
2022/04/17 09:05:37;;;;;;;85.70;53.45;;;18.30;59.80;;;;;;4937918;28;90970;-40
2022/04/17 09:08:17;;;;;;;88.57;53.75;;;18.30;60.60;;;;;;4941078;28;90388;-41
2022/04/17 09:10:57;;;;;;;90.60;53.85;;;18.40;61.10;;;;;;4942185;28;89868;-37
2022/04/17 09:13:27;;;;;;;87.18;53.30;;;18.40;60.80;;;;;;4949916;28;90099;-39
2022/04/17 09:15:54;;;;;;;84.63;53.92;;;18.40;60.00;;;;;;4946053;28;91441;-39
2022/04/17 09:18:19;;;;;;;88.15;54.08;;;18.40;59.60;;;;;;4950527;28;90936;-38
2022/04/17 09:20:46;;;;;;;86.88;53.63;;;18.40;59.10;;;;;;4947084;28;90631;-42
2022/04/17 09:23:12;;;;;;;83.47;53.25;;;18.50;58.90;;;;;;4945793;28;92020;-41
2022/04/17 09:25:38;;;;;;;87.07;53.60;;;18.50;58.40;;;;;;4940656;28;90891;-36
2022/04/17 09:28:06;;;;;;;92.18;54.55;;;18.50;57.90;;;;;;4941764;28;90900;-41
2022/04/17 09:30:42;;;;;;;91.15;54.17;;;18.50;57.70;;;;;;4947000;28;92091;-41
2022/04/17 09:33:13;;;;;;;86.95;53.97;;;18.60;57.60;;;;;;4944639;28;90668;-40
2022/04/17 09:35:39;;;;;;;88.70;54.13;;;18.50;57.20;;;;;;4943822;28;92381;-37
2022/04/17 09:38:07;;;;;;;94.97;54.13;;;18.60;57.10;;;;;;4934558;28;90659;-41
2022/04/17 09:40:36;;;;;;;90.88;53.85;;;18.60;57.00;;;;;;4941333;28;90654;-39
2022/04/17 09:43:09;;;;;;;95.35;55.10;;;18.60;56.80;;;;;;4941235;28;91045;-42
2022/04/17 09:45:56;;;;;;;89.32;54.40;;;18.60;57.40;;;;;;4951974;28;92140;-39
2022/04/17 09:48:22;;;;;;;94.78;55.13;;;18.70;57.20;;;;;;4953479;28;89137;-39
2022/04/17 09:50:47;;;;;;;91.63;54.55;;;18.70;56.80;;;;;;4937103;28;91127;-41
2022/04/17 09:53:32;;;;;;;94.20;55.08;;;18.70;56.40;;;;;;4943453;28;96297;-39
2022/04/17 09:56:09;;;;;;;92.15;54.78;;;18.70;56.00;;;;;;4948517;28;91071;-37
2022/04/17 09:58:45;;;;;;;93.80;54.90;;;18.70;55.70;;;;;;4950112;28;90570;-38
2022/04/17 10:01:15;;;;;;;96.30;54.42;;;18.70;55.60;;;;;;4950464;28;89651;-38
2022/04/17 10:03:41;;;;;;;96.75;54.83;;;18.80;55.40;;;;;;4948701;28;91336;-39
2022/04/17 10:06:07;;;;;;;89.22;54.75;;;18.80;55.20;;;;;;4949639;28;89958;-40
2022/04/17 10:08:33;;;;;;;92.53;54.95;;;18.80;55.30;;;;;;4961377;28;93789;-38
2022/04/17 10:11:01;;;;;;;92.15;54.90;;;18.80;55.20;;;;;;4958631;28;90029;-36
2022/04/17 10:13:27;;;;;;;92.70;54.10;;;18.80;55.10;;;;;;4953350;28;88940;-36
2022/04/17 10:15:58;;;;;;;89.97;53.75;;;18.90;55.00;;;;;;4952218;28;89816;-39
2022/04/17 10:18:27;;;;;;;87.13;54.15;;;18.90;54.90;;;;;;4952604;28;89818;-39
2022/04/17 10:20:55;;;;;;;87.43;54.25;;;18.90;54.60;;;;;;4941348;28;91511;-41
2022/04/17 10:23:25;;;;;;;87.95;53.95;;;18.90;54.50;;;;;;4931986;28;91144;-39
2022/04/17 10:25:52;;;;;;;85.70;53.55;;;19.00;54.20;;;;;;4930807;28;92062;-37
2022/04/17 10:28:21;;;;;;;86.72;54.15;;;18.90;53.80;;;;;;4946317;28;90482;-37
2022/04/17 10:31:01;;;;;;;90.63;55.65;;;18.90;53.70;;;;;;4942285;28;90194;-40
2022/04/17 10:33:46;;;;;;;94.50;55.67;;;18.90;54.30;;;;;;4937391;28;92515;-38
2022/04/17 10:36:15;;;;;;;149.23;79.10;;;19.00;54.50;;;;;;4938214;28;90284;-41
2022/04/17 10:39:16;;;;;;;131.63;67.60;;;19.00;54.30;;;;;;4944399;28;90237;-42
2022/04/17 10:41:42;;;;;;;116.68;62.05;;;19.00;54.20;;;;;;4938709;28;90347;-39
2022/04/17 10:44:12;;;;;;;104.55;63.28;;;19.00;53.90;;;;;;4934428;28;90062;-41
2022/04/17 10:46:50;;;;;;;111.50;66.53;;;19.00;53.60;;;;;;4938531;28;92512;-37
2022/04/17 10:49:21;;;;;;;93.70;58.75;;;19.00;53.20;;;;;;4933631;28;90224;-40
2022/04/17 10:51:52;;;;;;;93.28;57.50;;;19.00;52.10;;;;;;4932814;28;91114;-42
2022/04/17 10:54:17;;;;;;;94.70;56.42;;;19.00;51.30;;;;;;4943175;28;89972;-38
2022/04/17 10:56:55;;;;;;;113.68;56.60;;;19.00;51.10;;;;;;4938496;28;89963;-40
2022/04/17 10:59:30;;;;;;;98.30;56.65;;;19.10;51.50;;;;;;4934343;28;90120;-38
2022/04/17 11:02:04;;;;;;;101.53;56.03;;;19.10;51.80;;;;;;4941013;28;92215;-38
2022/04/17 11:04:30;;;;;;;95.07;55.33;;;19.10;51.70;;;;;;4941326;28;91812;-39
2022/04/17 11:07:04;;;;;;;93.03;55.60;;;19.10;51.80;;;;;;4933605;28;91084;-43
2022/04/17 11:09:36;;;;;;;95.50;54.83;;;19.20;51.80;;;;;;4935271;28;90247;-38
2022/04/17 11:12:19;;;;;;;;;;;19.10;51.70;;;;;;4928650;28;91434;-42
2022/04/17 11:14:57;;;;;;;92.30;54.67;;;19.10;51.60;;;;;;4939473;28;96486;-39
2022/04/17 11:17:24;;;;;;;85.80;54.58;;;19.20;51.20;;;;;;4948243;28;91773;-36
2022/04/17 11:19:54;;;;;;;91.30;54.67;;;19.20;51.50;;;;;;4942105;28;95684;-37
2022/04/17 11:22:35;;;;;;;96.85;54.72;;;19.20;51.40;;;;;;4932509;28;92504;-39
2022/04/17 11:25:08;;;;;;;107.15;55.88;;;19.30;51.30;;;;;;4936144;28;91257;-38
2022/04/17 11:27:35;;;;;;;91.50;54.55;;;19.30;50.90;;;;;;4937180;28;92506;-41
2022/04/17 11:30:03;;;;;;;94.80;55.10;;;19.30;50.90;;;;;;4940387;28;90198;-41
2022/04/17 11:32:32;;;;;;;94.43;55.55;;;19.30;51.20;;;;;;4941053;28;90048;-37
2022/04/17 11:35:01;;;;;;;101.47;55.42;;;19.40;50.80;;;;;;4940717;28;90596;-39
2022/04/17 11:37:31;;;;;;;95.45;55.33;;;19.30;50.70;;;;;;4938629;28;91353;-42
2022/04/17 11:40:10;;;;;;;95.93;55.55;;;19.40;50.50;;;;;;4940699;28;90975;-41
2022/04/17 11:42:43;;;;;;;92.35;55.25;;;19.40;50.30;;;;;;4935789;28;89852;-37
2022/04/17 11:45:10;;;;;;;101.53;55.25;;;19.40;50.00;;;;;;4936672;28;90891;-42
2022/04/17 11:47:44;;;;;;;94.95;55.92;;;19.40;49.70;;;;;;4936859;28;90524;-41
2022/04/17 11:50:11;;;;;;;91.68;55.10;;;19.50;49.60;;;;;;4938580;27;90332;-41
2022/04/17 11:52:38;;;;;;;100.15;55.67;;;19.50;49.60;;;;;;4935273;28;90599;-36
2022/04/17 11:55:07;;;;;;;94.60;55.35;;;19.50;49.70;;;;;;4933416;28;89844;-39
2022/04/17 11:57:33;;;;;;;95.72;55.40;;;19.50;49.70;;;;;;4940649;28;90026;-40
2022/04/17 12:00:00;;;;;;;91.55;55.45;;;19.60;49.70;;;;;;4940613;28;91083;-37
2022/04/17 12:02:28;;;;;;;92.45;54.85;;;19.60;49.70;;;;;;4941346;28;92496;-40
2022/04/17 12:05:09;;;;;;;98.63;55.47;;;19.60;49.70;;;;;;4935811;28;91487;-41
2022/04/17 12:07:35;;;;;;;92.90;54.90;;;19.60;49.40;;;;;;4937991;28;89954;-39
2022/04/17 12:10:05;;;;;;;92.78;55.15;;;19.60;49.30;;;;;;4938922;28;90809;-37
2022/04/17 12:12:35;;;;;;;95.32;54.97;;;19.70;49.40;;;;;;4953986;28;89840;-37
2022/04/17 12:15:03;;;;;;;89.50;54.87;;;19.70;49.20;;;;;;4936602;28;95286;-37
2022/04/17 12:17:33;;;;;;;91.80;55.03;;;19.70;49.40;;;;;;4940125;28;90008;-38
2022/04/17 12:20:01;;;;;;;87.65;54.67;;;19.70;49.40;;;;;;4936402;28;90312;-35
2022/04/17 12:22:27;;;;;;;90.63;54.88;;;19.80;49.70;;;;;;4938971;28;90770;-36
2022/04/17 12:24:53;;;;;;;91.05;54.85;;;19.80;49.70;;;;;;4937236;28;95490;-40
2022/04/17 12:27:20;;;;;;;90.47;54.85;;;19.80;49.70;;;;;;4939577;28;92133;-37
2022/04/17 12:29:58;;;;;;;93.82;54.55;;;19.80;49.60;;;;;;4938834;28;96142;-38
2022/04/17 12:32:26;;;;;;;92.30;54.55;;;19.80;49.60;;;;;;4936889;28;90874;-40
2022/04/17 12:35:05;;;;;;;89.55;54.95;;;19.80;49.60;;;;;;4938533;28;91441;-39
2022/04/17 12:37:35;;;;;;;91.93;55.28;;;19.90;49.70;;;;;;4936606;28;89838;-38
2022/04/17 12:40:12;;;;;;;94.13;54.85;;;19.90;49.60;;;;;;4933433;28;90728;-35